createdAt,value
2022-08-31T00:01:58.858Z,20.60
2022-08-31T00:06:22.029Z,20.60
2022-08-31T00:10:37.103Z,20.50
2022-08-31T00:14:50.020Z,20.50
2022-08-31T00:19:01.757Z,20.50
2022-08-31T00:23:16.811Z,20.50
2022-08-31T00:27:27.177Z,20.50
2022-08-31T00:31:38.786Z,20.50
2022-08-31T00:35:50.838Z,20.50
2022-08-31T00:40:01.416Z,20.40
2022-08-31T00:44:14.117Z,20.40
2022-08-31T00:48:36.359Z,20.40
2022-08-31T00:52:51.317Z,20.40
2022-08-31T00:57:03.781Z,20.30
2022-08-31T01:01:14.928Z,20.30
2022-08-31T01:05:28.160Z,20.30
2022-08-31T01:09:45.106Z,20.30
2022-08-31T01:14:08.598Z,20.30
2022-08-31T01:18:20.976Z,20.30
2022-08-31T01:22:40.818Z,20.30
2022-08-31T01:26:55.939Z,20.20
2022-08-31T01:31:09.366Z,20.20
2022-08-31T01:35:19.518Z,20.10
2022-08-31T01:39:29.639Z,20.10
2022-08-31T01:43:41.739Z,20.10
2022-08-31T01:47:51.596Z,20.00
2022-08-31T01:52:03.001Z,20.00
2022-08-31T01:56:15.079Z,20.10
2022-08-31T02:00:27.956Z,20.00
2022-08-31T02:04:37.823Z,20.00
2022-08-31T02:08:47.579Z,19.90
2022-08-31T02:12:58.080Z,19.80
2022-08-31T02:17:10.766Z,19.70
2022-08-31T02:21:20.538Z,19.70
2022-08-31T02:25:30.459Z,19.60
2022-08-31T02:29:44.542Z,19.60
2022-08-31T02:33:56.916Z,19.60
2022-08-31T02:38:07.658Z,19.50
2022-08-31T02:42:18.439Z,19.50
2022-08-31T02:46:28.642Z,19.50
2022-08-31T02:50:44.658Z,19.40
2022-08-31T02:54:54.656Z,19.50
2022-08-31T02:59:05.557Z,19.30
2022-08-31T03:03:16.098Z,19.30
2022-08-31T03:07:29.398Z,19.30
2022-08-31T03:11:39.621Z,19.20
2022-08-31T03:15:52.900Z,19.20
2022-08-31T03:20:05.159Z,19.20
2022-08-31T03:24:18.917Z,19.20
2022-08-31T03:28:31.699Z,19.20
2022-08-31T03:32:41.560Z,19.10
2022-08-31T03:36:51.498Z,19.10
2022-08-31T03:41:06.637Z,19.10
2022-08-31T03:45:17.257Z,19.00
2022-08-31T03:49:28.697Z,19.10
2022-08-31T03:53:39.559Z,19.00
2022-08-31T03:57:51.057Z,18.90
2022-08-31T04:02:01.779Z,19.00
2022-08-31T04:06:12.961Z,18.90
2022-08-31T04:10:24.541Z,18.90
2022-08-31T04:14:35.918Z,18.90
2022-08-31T04:18:48.682Z,19.00
2022-08-31T04:22:58.896Z,18.90
2022-08-31T04:27:08.520Z,18.90
2022-08-31T04:31:22.423Z,18.90
2022-08-31T04:35:33.077Z,18.80
2022-08-31T04:39:50.994Z,18.90
2022-08-31T04:44:03.964Z,18.90
2022-08-31T04:48:16.117Z,18.80
2022-08-31T04:52:28.361Z,18.80
2022-08-31T04:56:42.018Z,18.80
2022-08-31T05:00:53.410Z,18.80
2022-08-31T05:05:05.035Z,18.80
2022-08-31T05:09:18.458Z,18.80
2022-08-31T05:13:28.238Z,18.80
2022-08-31T05:17:37.999Z,18.70
2022-08-31T05:21:50.297Z,18.60
2022-08-31T05:26:00.037Z,18.70
2022-08-31T05:30:10.810Z,18.60
2022-08-31T05:34:21.820Z,18.70
2022-08-31T05:38:33.138Z,18.60
2022-08-31T05:42:45.338Z,18.70
2022-08-31T05:47:03.655Z,18.70
2022-08-31T05:51:18.837Z,18.60
2022-08-31T05:55:29.821Z,18.60
2022-08-31T05:59:41.438Z,18.70
2022-08-31T06:03:54.159Z,18.70
2022-08-31T06:08:05.021Z,18.70
2022-08-31T06:12:18.136Z,18.70
2022-08-31T06:16:30.676Z,18.70
2022-08-31T06:20:40.877Z,18.70
2022-08-31T06:24:50.577Z,18.80
2022-08-31T06:29:04.616Z,18.80
2022-08-31T06:33:15.164Z,18.90
2022-08-31T06:37:24.836Z,18.90
2022-08-31T06:41:37.116Z,18.90
2022-08-31T06:45:48.359Z,19.00
2022-08-31T06:49:58.627Z,19.00
2022-08-31T06:58:43.458Z,19.20
2022-08-31T07:02:57.485Z,19.30
2022-08-31T07:07:11.965Z,19.40
2022-08-31T07:11:24.576Z,19.50
2022-08-31T07:15:35.565Z,19.50
2022-08-31T07:19:47.062Z,19.60
2022-08-31T07:23:59.638Z,19.70
2022-08-31T07:28:11.778Z,19.80
2022-08-31T07:32:21.286Z,19.90
2022-08-31T07:36:32.685Z,19.90
2022-08-31T07:40:59.360Z,20.00
2022-08-31T07:45:12.778Z,20.10
2022-08-31T07:49:22.249Z,20.20
2022-08-31T07:53:47.977Z,20.30
2022-08-31T07:57:58.378Z,20.50
2022-08-31T08:02:11.156Z,20.70
2022-08-31T08:06:32.414Z,20.80
2022-08-31T08:10:52.177Z,21.00
2022-08-31T08:15:56.397Z,21.20
2022-08-31T08:20:13.351Z,21.40
2022-08-31T08:24:23.625Z,21.60
2022-08-31T08:28:39.631Z,21.90
2022-08-31T08:32:49.629Z,22.20
2022-08-31T08:36:59.209Z,22.30
2022-08-31T08:41:14.719Z,22.40
2022-08-31T08:45:26.004Z,22.70
2022-08-31T08:49:41.344Z,23.20
2022-08-31T08:54:01.707Z,23.50
2022-08-31T08:58:13.427Z,23.80
2022-08-31T09:02:30.961Z,24.10
2022-08-31T09:06:54.892Z,24.30
2022-08-31T09:11:18.191Z,24.50
2022-08-31T09:15:46.204Z,24.70
2022-08-31T09:20:04.600Z,24.80
2022-08-31T09:24:16.240Z,24.90
2022-08-31T09:28:39.872Z,25.00
2022-08-31T09:32:58.593Z,25.40
2022-08-31T09:37:21.711Z,25.70
2022-08-31T09:41:37.797Z,25.80
2022-08-31T09:45:57.322Z,25.80
2022-08-31T09:50:13.629Z,25.90
2022-08-31T09:54:47.136Z,25.90
2022-08-31T09:59:03.009Z,26.10
2022-08-31T10:03:21.343Z,26.20
2022-08-31T10:07:42.365Z,26.00
2022-08-31T10:11:58.050Z,25.80
2022-08-31T10:16:15.008Z,25.40
2022-08-31T10:20:35.256Z,25.20
2022-08-31T10:24:52.917Z,25.10
2022-08-31T10:29:22.800Z,25.00
2022-08-31T10:33:56.298Z,24.90
2022-08-31T10:38:30.331Z,24.90
2022-08-31T10:42:48.566Z,24.90
2022-08-31T10:47:06.554Z,25.00
2022-08-31T10:51:24.233Z,25.00
2022-08-31T10:55:40.749Z,24.70
2022-08-31T10:59:58.348Z,24.30
2022-08-31T11:04:47.110Z,23.90
2022-08-31T11:09:13.065Z,24.00
2022-08-31T11:13:58.671Z,24.30
2022-08-31T11:18:43.052Z,24.60
2022-08-31T11:23:33.030Z,24.90
2022-08-31T11:28:02.049Z,25.30
2022-08-31T11:32:37.383Z,25.50
2022-08-31T11:37:02.001Z,25.50
2022-08-31T11:41:14.946Z,25.10
2022-08-31T11:45:31.664Z,24.50
2022-08-31T11:49:45.674Z,24.30
2022-08-31T11:53:55.783Z,24.70
2022-08-31T11:58:32.227Z,25.30
2022-08-31T12:02:48.838Z,25.60
2022-08-31T12:07:01.646Z,25.60
2022-08-31T12:11:21.005Z,25.60
2022-08-31T12:15:39.815Z,25.50
2022-08-31T12:20:06.475Z,25.50
2022-08-31T12:24:30.270Z,25.50
2022-08-31T12:29:01.817Z,25.30
2022-08-31T12:33:17.144Z,25.20
2022-08-31T12:37:31.360Z,24.80
2022-08-31T12:41:44.658Z,24.90
2022-08-31T12:46:21.120Z,25.20
2022-08-31T12:50:38.568Z,25.20
2022-08-31T12:55:09.296Z,25.00
2022-08-31T12:59:56.976Z,25.10
2022-08-31T13:04:03.728Z,25.00
2022-08-31T13:08:23.885Z,24.80
2022-08-31T13:12:35.001Z,24.70
2022-08-31T13:16:47.396Z,24.60
2022-08-31T13:21:03.062Z,24.50
2022-08-31T13:25:17.380Z,24.60
2022-08-31T13:29:28.347Z,24.80
2022-08-31T13:33:40.679Z,25.00
2022-08-31T13:38:01.028Z,24.70
2022-08-31T13:42:12.626Z,24.60
2022-08-31T13:46:41.584Z,24.70
2022-08-31T13:51:00.628Z,24.70
2022-08-31T13:55:13.145Z,24.80
2022-08-31T13:59:33.629Z,24.60
2022-08-31T14:03:58.455Z,24.70
2022-08-31T14:08:09.908Z,24.90
2022-08-31T14:12:35.120Z,25.20
2022-08-31T14:16:51.902Z,25.20
2022-08-31T14:21:31.484Z,25.10
2022-08-31T14:25:40.708Z,25.30
2022-08-31T14:29:50.134Z,25.10
2022-08-31T14:34:10.181Z,25.00
2022-08-31T14:38:21.202Z,24.80
2022-08-31T14:42:35.268Z,25.10
2022-08-31T14:46:45.267Z,24.90
2022-08-31T14:50:56.131Z,24.90
2022-08-31T14:55:09.512Z,24.90
2022-08-31T14:59:21.818Z,24.90
2022-08-31T15:03:31.508Z,24.70
2022-08-31T15:07:43.062Z,24.40
2022-08-31T15:11:54.263Z,24.50
2022-08-31T15:16:04.947Z,24.30
2022-08-31T15:20:14.361Z,24.20
2022-08-31T15:24:25.660Z,24.10
2022-08-31T15:28:41.243Z,24.10
2022-08-31T15:32:50.627Z,24.00
2022-08-31T15:37:02.767Z,23.80
2022-08-31T15:41:13.802Z,23.90
2022-08-31T15:45:26.155Z,23.70
2022-08-31T15:49:35.673Z,23.70
2022-08-31T15:54:00.818Z,23.70
2022-08-31T15:58:15.434Z,23.90
2022-08-31T16:02:26.579Z,23.90
2022-08-31T16:06:37.727Z,23.70
2022-08-31T16:10:48.542Z,23.80
2022-08-31T16:14:57.812Z,24.00
2022-08-31T16:19:23.222Z,23.80
2022-08-31T16:23:42.435Z,23.60
2022-08-31T16:27:54.205Z,23.40
2022-08-31T16:32:04.169Z,23.40
2022-08-31T16:36:20.009Z,23.30
2022-08-31T16:40:29.310Z,23.10
2022-08-31T16:44:39.270Z,23.00
2022-08-31T16:49:06.092Z,22.90
2022-08-31T16:53:18.573Z,22.80
2022-08-31T16:57:33.340Z,22.70
2022-08-31T17:01:45.324Z,22.60
2022-08-31T17:05:54.625Z,22.60
2022-08-31T17:10:07.254Z,22.50
2022-08-31T17:14:19.041Z,22.60
2022-08-31T17:18:28.284Z,22.60
2022-08-31T17:22:37.731Z,22.50
2022-08-31T17:26:50.426Z,22.50
2022-08-31T17:31:01.729Z,22.50
2022-08-31T17:35:11.904Z,22.40
2022-08-31T17:39:22.763Z,22.20
2022-08-31T17:43:37.781Z,22.30
2022-08-31T17:47:46.881Z,22.30
2022-08-31T17:51:57.882Z,22.20
2022-08-31T17:56:08.711Z,22.30
2022-08-31T18:00:19.745Z,22.20
2022-08-31T18:04:30.746Z,22.10
2022-08-31T18:08:41.215Z,22.10
2022-08-31T18:12:50.730Z,22.00
2022-08-31T18:17:03.761Z,22.00
2022-08-31T18:21:13.096Z,21.90
2022-08-31T18:25:22.654Z,21.90
2022-08-31T18:29:33.524Z,21.80
2022-08-31T18:33:45.558Z,21.70
2022-08-31T18:37:54.999Z,21.70
2022-08-31T18:42:21.363Z,21.70
2022-08-31T18:46:30.958Z,21.60
2022-08-31T18:50:45.031Z,21.70
2022-08-31T18:54:56.226Z,21.60
2022-08-31T18:59:05.746Z,21.60
2022-08-31T19:03:14.924Z,21.50
2022-08-31T19:07:25.546Z,21.40
2022-08-31T19:11:38.669Z,21.30
2022-08-31T19:15:47.915Z,21.20
2022-08-31T19:19:57.401Z,21.10
2022-08-31T19:24:10.998Z,21.00
2022-08-31T19:28:20.679Z,21.00
2022-08-31T19:32:29.938Z,21.00
2022-08-31T19:36:41.338Z,20.90
2022-08-31T19:40:51.945Z,20.80
2022-08-31T19:49:32.783Z,20.70
2022-08-31T19:53:44.522Z,20.70
2022-08-31T19:57:55.385Z,20.70
2022-08-31T20:02:07.519Z,20.70
2022-08-31T20:06:19.864Z,20.70
2022-08-31T20:10:31.062Z,20.60
2022-08-31T20:14:47.060Z,20.60
2022-08-31T20:18:58.001Z,20.60
2022-08-31T20:23:07.083Z,20.70
2022-08-31T20:27:18.748Z,20.70
2022-08-31T20:31:30.458Z,20.70
2022-08-31T20:35:42.861Z,20.70
2022-08-31T20:39:52.180Z,20.70
2022-08-31T20:44:10.801Z,20.70
2022-08-31T20:48:38.802Z,20.70
2022-08-31T20:52:47.681Z,20.70
2022-08-31T20:56:57.121Z,20.70
2022-08-31T21:01:07.262Z,20.60
2022-08-31T21:09:48.463Z,20.60
2022-08-31T21:13:57.502Z,20.50
2022-08-31T21:18:06.662Z,20.40
2022-08-31T21:22:21.332Z,20.30
2022-08-31T21:26:30.513Z,20.10
2022-08-31T21:30:39.530Z,20.10
2022-08-31T21:34:48.991Z,20.00
2022-08-31T21:38:59.692Z,20.00
2022-08-31T21:43:08.831Z,20.00
2022-08-31T21:47:17.913Z,20.10
2022-08-31T21:51:30.592Z,20.00
2022-08-31T21:55:41.594Z,20.00
2022-08-31T21:59:51.832Z,20.00
2022-08-31T22:04:01.952Z,20.10
2022-08-31T22:08:11.371Z,19.90
2022-08-31T22:12:24.371Z,19.80
2022-08-31T22:16:34.454Z,19.90
2022-08-31T22:20:45.151Z,19.80
2022-08-31T22:24:55.692Z,19.70
2022-08-31T22:29:10.212Z,19.70
2022-08-31T22:33:19.691Z,19.60
2022-08-31T22:37:29.136Z,19.60
2022-08-31T22:41:41.594Z,19.50
2022-08-31T22:45:52.900Z,19.50
2022-08-31T22:50:02.395Z,19.50
2022-08-31T22:54:12.814Z,19.50
2022-08-31T22:58:22.697Z,19.50
2022-08-31T23:02:33.474Z,19.50
2022-08-31T23:06:42.855Z,19.40
2022-08-31T23:10:53.076Z,19.30
2022-08-31T23:15:03.517Z,19.30
2022-08-31T23:19:16.979Z,19.30
2022-08-31T23:23:26.477Z,19.20
2022-08-31T23:27:36.618Z,19.20
2022-08-31T23:31:49.177Z,19.20
2022-08-31T23:36:00.917Z,19.10
2022-08-31T23:40:11.726Z,19.10
2022-08-31T23:44:21.420Z,19.20
2022-08-31T23:48:31.295Z,19.30
2022-08-31T23:52:44.156Z,19.30
2022-08-31T23:56:58.316Z,19.40
